<?xml version="1.0" encoding="UTF-8" standalone="no" ?>
<gpx xmlns="http://www.topografix.com/GPX/1/1" xmlns:xsi="http://www.w3.org/2001/XMLSchema-instance" xsi:schemaLocation="http://www.topografix.com/GPX/1/1 http://www.topografix.com/GPX/1/1/gpx.xsd" version="1.1" creator="VisuGPX - https://www.visugpx.com">
  <metadata>
    <name>FontaineBleau </name>
    <desc><![CDATA[Deux parcours bien sympas et sportifs.
Génial en hivers]]></desc>
  </metadata>
  <wpt lat="48.40847" lon="2.63913">
    <ele>132</ele>
    <name><![CDATA[Croix de Franchard]]></name>
    <link href="C:/Users/lfuggetta/AppData/Roaming/Garmin/BaseCamp/Database/4.4/Adventures/d385b613-030f-4e69-a85b-1e5e04da7607.adb/Photos/Croix%20de%20Franchard.jpg"></link>
    <type><![CDATA[photo]]></type>
  </wpt>
  <wpt lat="48.40872" lon="2.63897">
    <ele>132.7578125</ele>
    <name><![CDATA[D301 Rte Ronde Croix de Franchard]]></name>
    <type><![CDATA[user]]></type>
  </wpt>
  <wpt lat="48.39412" lon="2.57537">
    <ele>70</ele>
    <name><![CDATA[Lac de sable]]></name>
    <link href="C:/Users/lfuggetta/AppData/Roaming/Garmin/BaseCamp/Database/4.4/Adventures/d385b613-030f-4e69-a85b-1e5e04da7607.adb/Photos/Lac%20de%20sable.jpg"></link>
    <type><![CDATA[photo]]></type>
  </wpt>
  <wpt lat="48.43623" lon="2.63824">
    <ele>130.9</ele>
    <name><![CDATA[S'il neige]]></name>
    <link href="C:/Users/lfuggetta/AppData/Roaming/Garmin/BaseCamp/Database/4.4/Adventures/d385b613-030f-4e69-a85b-1e5e04da7607.adb/Photos/images%202.jpg"></link>
    <type><![CDATA[photo]]></type>
  </wpt>
  <wpt lat="48.39079" lon="2.5964">
    <ele>122.2</ele>
    <name><![CDATA[Tunel]]></name>
    <link href="C:/Users/lfuggetta/AppData/Roaming/Garmin/BaseCamp/Database/4.4/Adventures/d385b613-030f-4e69-a85b-1e5e04da7607.adb/Photos/images.jpg"></link>
    <type><![CDATA[photo]]></type>
  </wpt>
  <trk>
    <name><![CDATA[FB Circuit 2]]></name>
    <trkseg>
      <trkpt lat="48.4087" lon="2.63847">
        <ele>138.4</ele>
        <time>2014-01-04T09:31:00Z</time>
      </trkpt>
      <trkpt lat="48.40902" lon="2.63633">
        <ele>138.66</ele>
        <time>2014-01-04T09:31:14Z</time>
      </trkpt>
      <trkpt lat="48.40911" lon="2.63581">
        <ele>138.98</ele>
        <time>2014-01-04T09:31:28Z</time>
      </trkpt>
      <trkpt lat="48.40918" lon="2.63547">
        <ele>139.3</ele>
        <time>2014-01-04T09:31:38Z</time>
      </trkpt>
      <trkpt lat="48.40924" lon="2.63516">
        <ele>138.74</ele>
        <time>2014-01-04T09:31:44Z</time>
      </trkpt>
      <trkpt lat="48.40932" lon="2.63475">
        <ele>138.86</ele>
        <time>2014-01-04T09:31:51Z</time>
      </trkpt>
      <trkpt lat="48.40958" lon="2.63427">
        <ele>138.88</ele>
        <time>2014-01-04T09:32:01Z</time>
      </trkpt>
      <trkpt lat="48.40965" lon="2.63412">
        <ele>139</ele>
        <time>2014-01-04T09:32:04Z</time>
      </trkpt>
      <trkpt lat="48.40961" lon="2.63331">
        <ele>138.49</ele>
        <time>2014-01-04T09:32:19Z</time>
      </trkpt>
      <trkpt lat="48.40988" lon="2.63299">
        <ele>138.38</ele>
        <time>2014-01-04T09:32:30Z</time>
      </trkpt>
      <trkpt lat="48.41025" lon="2.63289">
        <ele>138.2</ele>
        <time>2014-01-04T09:32:38Z</time>
      </trkpt>
      <trkpt lat="48.41151" lon="2.63264">
        <ele>135.89</ele>
        <time>2014-01-04T09:33:05Z</time>
      </trkpt>
      <trkpt lat="48.41229" lon="2.63247">
        <ele>134.65</ele>
        <time>2014-01-04T09:33:24Z</time>
      </trkpt>
      <trkpt lat="48.4138" lon="2.63221">
        <ele>130.95</ele>
        <time>2014-01-04T09:33:56Z</time>
      </trkpt>
      <trkpt lat="48.41452" lon="2.63212">
        <ele>127.71</ele>
        <time>2014-01-04T09:34:10Z</time>
      </trkpt>
      <trkpt lat="48.41462" lon="2.63209">
        <ele>127.66</ele>
        <time>2014-01-04T09:34:12Z</time>
      </trkpt>
      <trkpt lat="48.41492" lon="2.63207">
        <ele>123.88</ele>
        <time>2014-01-04T09:34:19Z</time>
      </trkpt>
      <trkpt lat="48.41499" lon="2.63204">
        <ele>123.09</ele>
        <time>2014-01-04T09:34:21Z</time>
      </trkpt>
      <trkpt lat="48.41547" lon="2.63192">
        <ele>127.63</ele>
        <time>2014-01-04T09:34:43Z</time>
      </trkpt>
      <trkpt lat="48.41578" lon="2.63189">
        <ele>130.64</ele>
        <time>2014-01-04T09:34:58Z</time>
      </trkpt>
      <trkpt lat="48.41625" lon="2.63179">
        <ele>134.3</ele>
        <time>2014-01-04T09:35:20Z</time>
      </trkpt>
      <trkpt lat="48.41736" lon="2.63159">
        <ele>137.08</ele>
        <time>2014-01-04T09:35:52Z</time>
      </trkpt>
      <trkpt lat="48.41865" lon="2.63135">
        <ele>133.63</ele>
        <time>2014-01-04T09:36:21Z</time>
      </trkpt>
      <trkpt lat="48.41924" lon="2.63116">
        <ele>130.29</ele>
        <time>2014-01-04T09:36:31Z</time>
      </trkpt>
      <trkpt lat="48.41945" lon="2.63114">
        <ele>125.82</ele>
        <time>2014-01-04T09:36:34Z</time>
      </trkpt>
      <trkpt lat="48.41985" lon="2.6311">
        <ele>122.21</ele>
        <time>2014-01-04T09:36:38Z</time>
      </trkpt>
      <trkpt lat="48.42003" lon="2.63108">
        <ele>118.4</ele>
        <time>2014-01-04T09:36:40Z</time>
      </trkpt>
      <trkpt lat="48.42027" lon="2.63103">
        <ele>114.96</ele>
        <time>2014-01-04T09:36:43Z</time>
      </trkpt>
      <trkpt lat="48.42071" lon="2.63096">
        <ele>109.63</ele>
        <time>2014-01-04T09:36:50Z</time>
      </trkpt>
      <trkpt lat="48.42187" lon="2.63075">
        <ele>105.74</ele>
        <time>2014-01-04T09:37:14Z</time>
      </trkpt>
      <trkpt lat="48.42236" lon="2.63067">
        <ele>102.72</ele>
        <time>2014-01-04T09:37:27Z</time>
      </trkpt>
      <trkpt lat="48.42265" lon="2.63062">
        <ele>104.76</ele>
        <time>2014-01-04T09:37:41Z</time>
      </trkpt>
      <trkpt lat="48.42299" lon="2.63059">
        <ele>108.5</ele>
        <time>2014-01-04T09:37:58Z</time>
      </trkpt>
      <trkpt lat="48.42356" lon="2.63049">
        <ele>112.16</ele>
        <time>2014-01-04T09:38:23Z</time>
      </trkpt>
      <trkpt lat="48.42385" lon="2.63042">
        <ele>115.81</ele>
        <time>2014-01-04T09:38:39Z</time>
      </trkpt>
      <trkpt lat="48.42414" lon="2.63042">
        <ele>119.37</ele>
        <time>2014-01-04T09:38:55Z</time>
      </trkpt>
      <trkpt lat="48.42432" lon="2.63038">
        <ele>122.39</ele>
        <time>2014-01-04T09:39:07Z</time>
      </trkpt>
      <trkpt lat="48.42456" lon="2.63032">
        <ele>127.2</ele>
        <time>2014-01-04T09:39:23Z</time>
      </trkpt>
      <trkpt lat="48.42482" lon="2.63027">
        <ele>130.67</ele>
        <time>2014-01-04T09:39:40Z</time>
      </trkpt>
      <trkpt lat="48.42526" lon="2.63019">
        <ele>134.95</ele>
        <time>2014-01-04T09:40:03Z</time>
      </trkpt>
      <trkpt lat="48.42588" lon="2.63004">
        <ele>137.7</ele>
        <time>2014-01-04T09:40:27Z</time>
      </trkpt>
      <trkpt lat="48.42704" lon="2.62974">
        <ele>138.46</ele>
        <time>2014-01-04T09:40:55Z</time>
      </trkpt>
      <trkpt lat="48.4279" lon="2.62971">
        <ele>140.1</ele>
        <time>2014-01-04T09:41:16Z</time>
      </trkpt>
      <trkpt lat="48.42801" lon="2.62999">
        <ele>140.54</ele>
        <time>2014-01-04T09:41:22Z</time>
      </trkpt>
      <trkpt lat="48.42845" lon="2.63101">
        <ele>140.6</ele>
        <time>2014-01-04T09:41:44Z</time>
      </trkpt>
      <trkpt lat="48.42891" lon="2.63218">
        <ele>141.17</ele>
        <time>2014-01-04T09:42:06Z</time>
      </trkpt>
      <trkpt lat="48.42914" lon="2.63269">
        <ele>141.32</ele>
        <time>2014-01-04T09:42:14Z</time>
      </trkpt>
      <trkpt lat="48.42929" lon="2.63319">
        <ele>141.01</ele>
        <time>2014-01-04T09:42:22Z</time>
      </trkpt>
      <trkpt lat="48.4298" lon="2.63463">
        <ele>141.14</ele>
        <time>2014-01-04T09:42:48Z</time>
      </trkpt>
      <trkpt lat="48.43027" lon="2.63557">
        <ele>140.33</ele>
        <time>2014-01-04T09:43:06Z</time>
      </trkpt>
      <trkpt lat="48.43033" lon="2.63555">
        <ele>144.86</ele>
        <time>2014-01-04T10:05:06Z</time>
      </trkpt>
      <trkpt lat="48.43048" lon="2.63501">
        <ele>145.34</ele>
        <time>2014-01-04T10:05:18Z</time>
      </trkpt>
      <trkpt lat="48.43048" lon="2.63444">
        <ele>145.46</ele>
        <time>2014-01-04T10:05:29Z</time>
      </trkpt>
      <trkpt lat="48.43056" lon="2.63414">
        <ele>145.56</ele>
        <time>2014-01-04T10:05:35Z</time>
      </trkpt>
      <trkpt lat="48.43061" lon="2.63396">
        <ele>145.49</ele>
        <time>2014-01-04T10:05:39Z</time>
      </trkpt>
      <trkpt lat="48.4309" lon="2.63311">
        <ele>145.73</ele>
        <time>2014-01-04T10:05:58Z</time>
      </trkpt>
      <trkpt lat="48.43097" lon="2.63279">
        <ele>145.46</ele>
        <time>2014-01-04T10:06:17Z</time>
      </trkpt>
      <trkpt lat="48.43099" lon="2.63268">
        <ele>141.29</ele>
        <time>2014-01-04T10:06:40Z</time>
      </trkpt>
      <trkpt lat="48.43115" lon="2.63246">
        <ele>137.78</ele>
        <time>2014-01-04T10:06:46Z</time>
      </trkpt>
      <trkpt lat="48.43131" lon="2.63229">
        <ele>133.25</ele>
        <time>2014-01-04T10:06:50Z</time>
      </trkpt>
      <trkpt lat="48.43147" lon="2.63217">
        <ele>129.72</ele>
        <time>2014-01-04T10:06:54Z</time>
      </trkpt>
      <trkpt lat="48.4318" lon="2.63182">
        <ele>125.37</ele>
        <time>2014-01-04T10:07:04Z</time>
      </trkpt>
      <trkpt lat="48.43187" lon="2.63175">
        <ele>124.76</ele>
        <time>2014-01-04T10:07:10Z</time>
      </trkpt>
      <trkpt lat="48.43191" lon="2.63177">
        <ele>124.21</ele>
        <time>2014-01-04T10:07:35Z</time>
      </trkpt>
      <trkpt lat="48.43189" lon="2.63166">
        <ele>124.26</ele>
        <time>2014-01-04T10:08:18Z</time>
      </trkpt>
      <trkpt lat="48.43188" lon="2.63161">
        <ele>124</ele>
        <time>2014-01-04T10:09:21Z</time>
      </trkpt>
      <trkpt lat="48.43223" lon="2.63113">
        <ele>118.29</ele>
        <time>2014-01-04T10:09:39Z</time>
      </trkpt>
      <trkpt lat="48.43249" lon="2.63018">
        <ele>116.38</ele>
        <time>2014-01-04T10:09:55Z</time>
      </trkpt>
      <trkpt lat="48.43258" lon="2.62982">
        <ele>115.17</ele>
        <time>2014-01-04T10:10:01Z</time>
      </trkpt>
      <trkpt lat="48.4327" lon="2.62939">
        <ele>114.02</ele>
        <time>2014-01-04T10:10:08Z</time>
      </trkpt>
      <trkpt lat="48.43275" lon="2.62912">
        <ele>113.95</ele>
        <time>2014-01-04T10:10:12Z</time>
      </trkpt>
      <trkpt lat="48.43277" lon="2.62861">
        <ele>112.39</ele>
        <time>2014-01-04T10:10:23Z</time>
      </trkpt>
      <trkpt lat="48.43298" lon="2.62824">
        <ele>109</ele>
        <time>2014-01-04T10:10:35Z</time>
      </trkpt>
      <trkpt lat="48.43315" lon="2.6282">
        <ele>107.18</ele>
        <time>2014-01-04T10:10:42Z</time>
      </trkpt>
      <trkpt lat="48.43352" lon="2.62795">
        <ele>104.03</ele>
        <time>2014-01-04T10:10:58Z</time>
      </trkpt>
      <trkpt lat="48.434" lon="2.62796">
        <ele>102.26</ele>
        <time>2014-01-04T10:11:13Z</time>
      </trkpt>
      <trkpt lat="48.43399" lon="2.62797">
        <ele>102.3</ele>
        <time>2014-01-04T10:11:19Z</time>
      </trkpt>
      <trkpt lat="48.43416" lon="2.62782">
        <ele>102.17</ele>
        <time>2014-01-04T10:11:56Z</time>
      </trkpt>
      <trkpt lat="48.43455" lon="2.62769">
        <ele>101.27</ele>
        <time>2014-01-04T10:12:08Z</time>
      </trkpt>
      <trkpt lat="48.43458" lon="2.62731">
        <ele>101.52</ele>
        <time>2014-01-04T10:12:24Z</time>
      </trkpt>
      <trkpt lat="48.43428" lon="2.62689">
        <ele>101.97</ele>
        <time>2014-01-04T10:12:45Z</time>
      </trkpt>
      <trkpt lat="48.43386" lon="2.62704">
        <ele>105.04</ele>
        <time>2014-01-04T10:13:03Z</time>
      </trkpt>
      <trkpt lat="48.4338" lon="2.6271">
        <ele>105.1</ele>
        <time>2014-01-04T10:13:05Z</time>
      </trkpt>
      <trkpt lat="48.43351" lon="2.6271">
        <ele>107.73</ele>
        <time>2014-01-04T10:13:23Z</time>
      </trkpt>
      <trkpt lat="48.43344" lon="2.6269">
        <ele>109.65</ele>
        <time>2014-01-04T10:13:34Z</time>
      </trkpt>
      <trkpt lat="48.43334" lon="2.62676">
        <ele>111.18</ele>
        <time>2014-01-04T10:13:42Z</time>
      </trkpt>
      <trkpt lat="48.4333" lon="2.62635">
        <ele>114.36</ele>
        <time>2014-01-04T10:13:57Z</time>
      </trkpt>
      <trkpt lat="48.4333" lon="2.62632">
        <ele>114.58</ele>
        <time>2014-01-04T10:13:58Z</time>
      </trkpt>
      <trkpt lat="48.43332" lon="2.62589">
        <ele>117.73</ele>
        <time>2014-01-04T10:14:14Z</time>
      </trkpt>
      <trkpt lat="48.43334" lon="2.6258">
        <ele>119.18</ele>
        <time>2014-01-04T10:14:18Z</time>
      </trkpt>
      <trkpt lat="48.43314" lon="2.62558">
        <ele>123.72</ele>
        <time>2014-01-04T10:14:39Z</time>
      </trkpt>
      <trkpt lat="48.433" lon="2.6255">
        <ele>127.12</ele>
        <time>2014-01-04T10:14:50Z</time>
      </trkpt>
      <trkpt lat="48.43289" lon="2.62538">
        <ele>130.54</ele>
        <time>2014-01-04T10:14:59Z</time>
      </trkpt>
      <trkpt lat="48.4328" lon="2.62529">
        <ele>133.95</ele>
        <time>2014-01-04T10:15:06Z</time>
      </trkpt>
      <trkpt lat="48.43278" lon="2.62514">
        <ele>137.14</ele>
        <time>2014-01-04T10:15:26Z</time>
      </trkpt>
      <trkpt lat="48.4328" lon="2.62509">
        <ele>137.24</ele>
        <time>2014-01-04T10:15:37Z</time>
      </trkpt>
      <trkpt lat="48.43277" lon="2.6251">
        <ele>137.49</ele>
        <time>2014-01-04T10:16:33Z</time>
      </trkpt>
      <trkpt lat="48.43274" lon="2.62497">
        <ele>136.87</ele>
        <time>2014-01-04T10:17:08Z</time>
      </trkpt>
      <trkpt lat="48.43257" lon="2.62477">
        <ele>130.85</ele>
        <time>2014-01-04T10:17:18Z</time>
      </trkpt>
      <trkpt lat="48.43249" lon="2.62416">
        <ele>128.56</ele>
        <time>2014-01-04T10:17:27Z</time>
      </trkpt>
      <trkpt lat="48.43261" lon="2.62366">
        <ele>130.99</ele>
        <time>2014-01-04T10:17:42Z</time>
      </trkpt>
      <trkpt lat="48.43275" lon="2.62347">
        <ele>135.26</ele>
        <time>2014-01-04T10:17:56Z</time>
      </trkpt>
      <trkpt lat="48.43277" lon="2.62294">
        <ele>139.37</ele>
        <time>2014-01-04T10:18:18Z</time>
      </trkpt>
      <trkpt lat="48.43277" lon="2.62272">
        <ele>143.16</ele>
        <time>2014-01-04T10:18:28Z</time>
      </trkpt>
      <trkpt lat="48.43293" lon="2.62237">
        <ele>144.76</ele>
        <time>2014-01-04T10:18:45Z</time>
      </trkpt>
      <trkpt lat="48.43299" lon="2.62253">
        <ele>144.72</ele>
        <time>2014-01-04T10:18:57Z</time>
      </trkpt>
      <trkpt lat="48.43298" lon="2.62275">
        <ele>142.41</ele>
        <time>2014-01-04T10:19:14Z</time>
      </trkpt>
      <trkpt lat="48.43288" lon="2.62295">
        <ele>138.68</ele>
        <time>2014-01-04T10:19:22Z</time>
      </trkpt>
      <trkpt lat="48.43281" lon="2.62293">
        <ele>138.52</ele>
        <time>2014-01-04T10:19:30Z</time>
      </trkpt>
      <trkpt lat="48.43279" lon="2.6227">
        <ele>141.83</ele>
        <time>2014-01-04T10:19:40Z</time>
      </trkpt>
      <trkpt lat="48.43279" lon="2.62264">
        <ele>143.28</ele>
        <time>2014-01-04T10:19:44Z</time>
      </trkpt>
      <trkpt lat="48.43296" lon="2.62209">
        <ele>145.26</ele>
        <time>2014-01-04T10:20:09Z</time>
      </trkpt>
      <trkpt lat="48.43298" lon="2.62184">
        <ele>145.82</ele>
        <time>2014-01-04T10:20:26Z</time>
      </trkpt>
      <trkpt lat="48.4331" lon="2.62155">
        <ele>146.63</ele>
        <time>2014-01-04T10:20:40Z</time>
      </trkpt>
      <trkpt lat="48.43319" lon="2.62119">
        <ele>146.54</ele>
        <time>2014-01-04T10:20:53Z</time>
      </trkpt>
      <trkpt lat="48.43329" lon="2.62082">
        <ele>145.86</ele>
        <time>2014-01-04T10:21:18Z</time>
      </trkpt>
      <trkpt lat="48.43337" lon="2.62079">
        <ele>146.25</ele>
        <time>2014-01-04T10:22:30Z</time>
      </trkpt>
      <trkpt lat="48.43337" lon="2.62073">
        <ele>146.57</ele>
        <time>2014-01-04T10:23:27Z</time>
      </trkpt>
      <trkpt lat="48.43347" lon="2.62004">
        <ele>147.03</ele>
        <time>2014-01-04T10:23:52Z</time>
      </trkpt>
      <trkpt lat="48.43348" lon="2.61957">
        <ele>148.03</ele>
        <time>2014-01-04T10:24:07Z</time>
      </trkpt>
      <trkpt lat="48.43354" lon="2.6194">
        <ele>148.46</ele>
        <time>2014-01-04T10:24:17Z</time>
      </trkpt>
      <trkpt lat="48.4336" lon="2.61891">
        <ele>148.34</ele>
        <time>2014-01-04T10:24:41Z</time>
      </trkpt>
      <trkpt lat="48.43363" lon="2.61848">
        <ele>147.47</ele>
        <time>2014-01-04T10:25:00Z</time>
      </trkpt>
      <trkpt lat="48.43362" lon="2.61818">
        <ele>147.96</ele>
        <time>2014-01-04T10:25:31Z</time>
      </trkpt>
      <trkpt lat="48.43364" lon="2.61784">
        <ele>147.85</ele>
        <time>2014-01-04T10:26:30Z</time>
      </trkpt>
      <trkpt lat="48.43374" lon="2.61739">
        <ele>148.4</ele>
        <time>2014-01-04T10:26:49Z</time>
      </trkpt>
      <trkpt lat="48.43383" lon="2.61709">
        <ele>147.15</ele>
        <time>2014-01-04T10:27:07Z</time>
      </trkpt>
      <trkpt lat="48.43392" lon="2.61693">
        <ele>146.85</ele>
        <time>2014-01-04T10:27:15Z</time>
      </trkpt>
      <trkpt lat="48.43403" lon="2.61647">
        <ele>147.28</ele>
        <time>2014-01-04T10:27:33Z</time>
      </trkpt>
      <trkpt lat="48.43404" lon="2.61615">
        <ele>147.98</ele>
        <time>2014-01-04T10:28:03Z</time>
      </trkpt>
      <trkpt lat="48.4341" lon="2.61569">
        <ele>148.05</ele>
        <time>2014-01-04T10:28:33Z</time>
      </trkpt>
      <trkpt lat="48.4342" lon="2.61543">
        <ele>147.63</ele>
        <time>2014-01-04T10:28:46Z</time>
      </trkpt>
      <trkpt lat="48.43421" lon="2.61531">
        <ele>147.76</ele>
        <time>2014-01-04T10:28:52Z</time>
      </trkpt>
      <trkpt lat="48.43421" lon="2.61521">
        <ele>147.8</ele>
        <time>2014-01-04T10:28:57Z</time>
      </trkpt>
      <trkpt lat="48.43433" lon="2.61496">
        <ele>147.78</ele>
        <time>2014-01-04T10:29:11Z</time>
      </trkpt>
      <trkpt lat="48.4344" lon="2.61487">
        <ele>145.64</ele>
        <time>2014-01-04T10:29:47Z</time>
      </trkpt>
      <trkpt lat="48.43452" lon="2.61481">
        <ele>141.02</ele>
        <time>2014-01-04T10:30:24Z</time>
      </trkpt>
      <trkpt lat="48.43469" lon="2.61479">
        <ele>135.32</ele>
        <time>2014-01-04T10:31:13Z</time>
      </trkpt>
      <trkpt lat="48.4347" lon="2.61479">
        <ele>134.86</ele>
        <time>2014-01-04T10:31:14Z</time>
      </trkpt>
      <trkpt lat="48.4348" lon="2.61482">
        <ele>131.24</ele>
        <time>2014-01-04T10:31:20Z</time>
      </trkpt>
      <trkpt lat="48.4349" lon="2.61485">
        <ele>127.46</ele>
        <time>2014-01-04T10:31:26Z</time>
      </trkpt>
      <trkpt lat="48.43489" lon="2.615">
        <ele>124.55</ele>
        <time>2014-01-04T10:31:43Z</time>
      </trkpt>
      <trkpt lat="48.43491" lon="2.61511">
        <ele>121.38</ele>
        <time>2014-01-04T10:31:59Z</time>
      </trkpt>
      <trkpt lat="48.43491" lon="2.61523">
        <ele>117.54</ele>
        <time>2014-01-04T10:32:04Z</time>
      </trkpt>
      <trkpt lat="48.43493" lon="2.61528">
        <ele>116.07</ele>
        <time>2014-01-04T10:32:21Z</time>
      </trkpt>
      <trkpt lat="48.43498" lon="2.6153">
        <ele>115.89</ele>
        <time>2014-01-04T10:32:56Z</time>
      </trkpt>
      <trkpt lat="48.43499" lon="2.61525">
        <ele>115.75</ele>
        <time>2014-01-04T10:33:42Z</time>
      </trkpt>
      <trkpt lat="48.43532" lon="2.61544">
        <ele>110.05</ele>
        <time>2014-01-04T10:33:54Z</time>
      </trkpt>
      <trkpt lat="48.4354" lon="2.61569">
        <ele>106.86</ele>
        <time>2014-01-04T10:34:01Z</time>
      </trkpt>
      <trkpt lat="48.43555" lon="2.61594">
        <ele>103.37</ele>
        <time>2014-01-04T10:34:09Z</time>
      </trkpt>
      <trkpt lat="48.43572" lon="2.61602">
        <ele>103.18</ele>
        <time>2014-01-04T10:34:13Z</time>
      </trkpt>
      <trkpt lat="48.43615" lon="2.61646">
        <ele>99.6</ele>
        <time>2014-01-04T10:34:25Z</time>
      </trkpt>
      <trkpt lat="48.43638" lon="2.61674">
        <ele>99.53</ele>
        <time>2014-01-04T10:34:32Z</time>
      </trkpt>
      <trkpt lat="48.43666" lon="2.61707">
        <ele>99.36</ele>
        <time>2014-01-04T10:34:50Z</time>
      </trkpt>
      <trkpt lat="48.43709" lon="2.61743">
        <ele>98.85</ele>
        <time>2014-01-04T10:35:06Z</time>
      </trkpt>
      <trkpt lat="48.43793" lon="2.61816">
        <ele>100.07</ele>
        <time>2014-01-04T10:35:34Z</time>
      </trkpt>
      <trkpt lat="48.43884" lon="2.61908">
        <ele>103.06</ele>
        <time>2014-01-04T10:36:03Z</time>
      </trkpt>
      <trkpt lat="48.43917" lon="2.61909">
        <ele>105.09</ele>
        <time>2014-01-04T10:36:15Z</time>
      </trkpt>
      <trkpt lat="48.43962" lon="2.61951">
        <ele>108.35</ele>
        <time>2014-01-04T10:36:34Z</time>
      </trkpt>
      <trkpt lat="48.43989" lon="2.61995">
        <ele>112.13</ele>
        <time>2014-01-04T10:36:51Z</time>
      </trkpt>
      <trkpt lat="48.44009" lon="2.62033">
        <ele>109.77</ele>
        <time>2014-01-04T10:37:12Z</time>
      </trkpt>
      <trkpt lat="48.4401" lon="2.62033">
        <ele>109.54</ele>
        <time>2014-01-04T10:37:13Z</time>
      </trkpt>
      <trkpt lat="48.44039" lon="2.6205">
        <ele>103.9</ele>
        <time>2014-01-04T10:37:40Z</time>
      </trkpt>
      <trkpt lat="48.44062" lon="2.62104">
        <ele>100.86</ele>
        <time>2014-01-04T10:37:50Z</time>
      </trkpt>
      <trkpt lat="48.44076" lon="2.62131">
        <ele>100.55</ele>
        <time>2014-01-04T10:37:56Z</time>
      </trkpt>
      <trkpt lat="48.44124" lon="2.62216">
        <ele>97.52</ele>
        <time>2014-01-04T10:38:15Z</time>
      </trkpt>
      <trkpt lat="48.44124" lon="2.62248">
        <ele>97.82</ele>
        <time>2014-01-04T10:38:23Z</time>
      </trkpt>
      <trkpt lat="48.44118" lon="2.623">
        <ele>98.28</ele>
        <time>2014-01-04T10:38:36Z</time>
      </trkpt>
      <trkpt lat="48.44104" lon="2.62409">
        <ele>98.59</ele>
        <time>2014-01-04T10:38:56Z</time>
      </trkpt>
      <trkpt lat="48.4407" lon="2.62436">
        <ele>98.7</ele>
        <time>2014-01-04T10:39:09Z</time>
      </trkpt>
      <trkpt lat="48.44037" lon="2.62439">
        <ele>98.8</ele>
        <time>2014-01-04T10:39:29Z</time>
      </trkpt>
      <trkpt lat="48.43964" lon="2.62437">
        <ele>99.45</ele>
        <time>2014-01-04T10:39:59Z</time>
      </trkpt>
      <trkpt lat="48.43919" lon="2.62442">
        <ele>100.4</ele>
        <time>2014-01-04T10:40:16Z</time>
      </trkpt>
      <trkpt lat="48.43858" lon="2.62434">
        <ele>101.26</ele>
        <time>2014-01-04T10:40:34Z</time>
      </trkpt>
      <trkpt lat="48.43813" lon="2.62424">
        <ele>102.06</ele>
        <time>2014-01-04T10:40:49Z</time>
      </trkpt>
      <trkpt lat="48.43734" lon="2.62452">
        <ele>103.04</ele>
        <time>2014-01-04T10:41:13Z</time>
      </trkpt>
      <trkpt lat="48.43708" lon="2.62472">
        <ele>102.13</ele>
        <time>2014-01-04T10:41:26Z</time>
      </trkpt>
      <trkpt lat="48.43697" lon="2.62493">
        <ele>101.73</ele>
        <time>2014-01-04T10:41:35Z</time>
      </trkpt>
      <trkpt lat="48.43688" lon="2.62504">
        <ele>102</ele>
        <time>2014-01-04T10:41:39Z</time>
      </trkpt>
      <trkpt lat="48.43667" lon="2.62583">
        <ele>103.13</ele>
        <time>2014-01-04T10:41:57Z</time>
      </trkpt>
      <trkpt lat="48.43634" lon="2.62643">
        <ele>102.85</ele>
        <time>2014-01-04T10:42:14Z</time>
      </trkpt>
      <trkpt lat="48.43589" lon="2.62694">
        <ele>103.6</ele>
        <time>2014-01-04T10:42:31Z</time>
      </trkpt>
      <trkpt lat="48.43559" lon="2.62783">
        <ele>105.11</ele>
        <time>2014-01-04T10:42:51Z</time>
      </trkpt>
      <trkpt lat="48.43535" lon="2.62849">
        <ele>105.74</ele>
        <time>2014-01-04T10:43:12Z</time>
      </trkpt>
      <trkpt lat="48.43499" lon="2.62924">
        <ele>108.8</ele>
        <time>2014-01-04T10:43:40Z</time>
      </trkpt>
      <trkpt lat="48.43479" lon="2.62958">
        <ele>112.26</ele>
        <time>2014-01-04T10:43:55Z</time>
      </trkpt>
      <trkpt lat="48.4347" lon="2.63">
        <ele>115.6</ele>
        <time>2014-01-04T10:44:11Z</time>
      </trkpt>
      <trkpt lat="48.43504" lon="2.63042">
        <ele>117.14</ele>
        <time>2014-01-04T10:44:29Z</time>
      </trkpt>
      <trkpt lat="48.43517" lon="2.63086">
        <ele>115.36</ele>
        <time>2014-01-04T10:44:36Z</time>
      </trkpt>
      <trkpt lat="48.43505" lon="2.63182">
        <ele>115.42</ele>
        <time>2014-01-04T10:45:00Z</time>
      </trkpt>
      <trkpt lat="48.43478" lon="2.63265">
        <ele>115.71</ele>
        <time>2014-01-04T10:45:24Z</time>
      </trkpt>
      <trkpt lat="48.43445" lon="2.63349">
        <ele>117.85</ele>
        <time>2014-01-04T10:45:46Z</time>
      </trkpt>
      <trkpt lat="48.43437" lon="2.63375">
        <ele>118.92</ele>
        <time>2014-01-04T10:45:55Z</time>
      </trkpt>
      <trkpt lat="48.43387" lon="2.63414">
        <ele>119.93</ele>
        <time>2014-01-04T10:46:13Z</time>
      </trkpt>
      <trkpt lat="48.43347" lon="2.63479">
        <ele>123.8</ele>
        <time>2014-01-04T10:46:34Z</time>
      </trkpt>
      <trkpt lat="48.43307" lon="2.63488">
        <ele>127.32</ele>
        <time>2014-01-04T10:46:54Z</time>
      </trkpt>
      <trkpt lat="48.43292" lon="2.63485">
        <ele>130.35</ele>
        <time>2014-01-04T10:47:07Z</time>
      </trkpt>
      <trkpt lat="48.4328" lon="2.63482">
        <ele>131.52</ele>
        <time>2014-01-04T10:47:16Z</time>
      </trkpt>
      <trkpt lat="48.43254" lon="2.63475">
        <ele>136.33</ele>
        <time>2014-01-04T10:47:38Z</time>
      </trkpt>
      <trkpt lat="48.43245" lon="2.63462">
        <ele>139.5</ele>
        <time>2014-01-04T10:47:47Z</time>
      </trkpt>
      <trkpt lat="48.43236" lon="2.63468">
        <ele>139.47</ele>
        <time>2014-01-04T10:47:53Z</time>
      </trkpt>
      <trkpt lat="48.43215" lon="2.6346">
        <ele>143.67</ele>
        <time>2014-01-04T10:48:10Z</time>
      </trkpt>
      <trkpt lat="48.43211" lon="2.63446">
        <ele>147.27</ele>
        <time>2014-01-04T10:48:30Z</time>
      </trkpt>
      <trkpt lat="48.4321" lon="2.6343">
        <ele>151.01</ele>
        <time>2014-01-04T10:48:51Z</time>
      </trkpt>
      <trkpt lat="48.43215" lon="2.63422">
        <ele>152.24</ele>
        <time>2014-01-04T10:49:38Z</time>
      </trkpt>
      <trkpt lat="48.43214" lon="2.63411">
        <ele>152.58</ele>
        <time>2014-01-04T10:51:02Z</time>
      </trkpt>
      <trkpt lat="48.43181" lon="2.63399">
        <ele>151.7</ele>
        <time>2014-01-04T10:51:19Z</time>
      </trkpt>
      <trkpt lat="48.43162" lon="2.63408">
        <ele>152.63</ele>
        <time>2014-01-04T10:51:41Z</time>
      </trkpt>
      <trkpt lat="48.43149" lon="2.63434">
        <ele>152.9</ele>
        <time>2014-01-04T10:51:52Z</time>
      </trkpt>
      <trkpt lat="48.43136" lon="2.63458">
        <ele>152.39</ele>
        <time>2014-01-04T10:51:59Z</time>
      </trkpt>
      <trkpt lat="48.43147" lon="2.63511">
        <ele>151.67</ele>
        <time>2014-01-04T10:52:12Z</time>
      </trkpt>
      <trkpt lat="48.43134" lon="2.63547">
        <ele>152.31</ele>
        <time>2014-01-04T10:52:32Z</time>
      </trkpt>
      <trkpt lat="48.43134" lon="2.63556">
        <ele>141.43</ele>
        <time>2014-01-04T09:43:56Z</time>
      </trkpt>
      <trkpt lat="48.43145" lon="2.63592">
        <ele>139.12</ele>
        <time>2014-01-04T09:44:05Z</time>
      </trkpt>
      <trkpt lat="48.43167" lon="2.63612">
        <ele>135.99</ele>
        <time>2014-01-04T09:44:24Z</time>
      </trkpt>
      <trkpt lat="48.43179" lon="2.63633">
        <ele>132.76</ele>
        <time>2014-01-04T09:44:37Z</time>
      </trkpt>
      <trkpt lat="48.43183" lon="2.63636">
        <ele>131.43</ele>
        <time>2014-01-04T09:45:01Z</time>
      </trkpt>
      <trkpt lat="48.43216" lon="2.63656">
        <ele>127.08</ele>
        <time>2014-01-04T09:45:12Z</time>
      </trkpt>
      <trkpt lat="48.4324" lon="2.63673">
        <ele>123.96</ele>
        <time>2014-01-04T09:45:23Z</time>
      </trkpt>
      <trkpt lat="48.43249" lon="2.63676">
        <ele>121.84</ele>
        <time>2014-01-04T09:45:34Z</time>
      </trkpt>
      <trkpt lat="48.43275" lon="2.6368">
        <ele>118.09</ele>
        <time>2014-01-04T09:45:47Z</time>
      </trkpt>
      <trkpt lat="48.43297" lon="2.63699">
        <ele>116.29</ele>
        <time>2014-01-04T09:45:54Z</time>
      </trkpt>
      <trkpt lat="48.43335" lon="2.63766">
        <ele>112.14</ele>
        <time>2014-01-04T09:46:07Z</time>
      </trkpt>
      <trkpt lat="48.43325" lon="2.63804">
        <ele>108.7</ele>
        <time>2014-01-04T09:46:15Z</time>
      </trkpt>
      <trkpt lat="48.43315" lon="2.63844">
        <ele>107.09</ele>
        <time>2014-01-04T09:46:23Z</time>
      </trkpt>
      <trkpt lat="48.43289" lon="2.63899">
        <ele>103.99</ele>
        <time>2014-01-04T09:46:34Z</time>
      </trkpt>
      <trkpt lat="48.43277" lon="2.6394">
        <ele>102.67</ele>
        <time>2014-01-04T09:46:43Z</time>
      </trkpt>
      <trkpt lat="48.43286" lon="2.63961">
        <ele>101.84</ele>
        <time>2014-01-04T09:47:04Z</time>
      </trkpt>
      <trkpt lat="48.43296" lon="2.63974">
        <ele>102.19</ele>
        <time>2014-01-04T09:47:25Z</time>
      </trkpt>
      <trkpt lat="48.4328" lon="2.63995">
        <ele>101.48</ele>
        <time>2014-01-04T09:47:40Z</time>
      </trkpt>
      <trkpt lat="48.433" lon="2.64051">
        <ele>101.12</ele>
        <time>2014-01-04T09:47:59Z</time>
      </trkpt>
      <trkpt lat="48.43291" lon="2.64181">
        <ele>101.87</ele>
        <time>2014-01-04T09:48:13Z</time>
      </trkpt>
      <trkpt lat="48.43302" lon="2.64192">
        <ele>100.99</ele>
        <time>2014-01-04T09:48:25Z</time>
      </trkpt>
      <trkpt lat="48.43329" lon="2.64174">
        <ele>100.9</ele>
        <time>2014-01-04T09:48:26Z</time>
      </trkpt>
      <trkpt lat="48.43363" lon="2.64153">
        <ele>99.82</ele>
        <time>2014-01-04T09:48:46Z</time>
      </trkpt>
      <trkpt lat="48.43443" lon="2.64157">
        <ele>103.18</ele>
        <time>2014-01-04T09:49:09Z</time>
      </trkpt>
      <trkpt lat="48.43495" lon="2.6415">
        <ele>108.27</ele>
        <time>2014-01-04T09:49:32Z</time>
      </trkpt>
      <trkpt lat="48.43496" lon="2.6415">
        <ele>108.66</ele>
        <time>2014-01-04T09:49:33Z</time>
      </trkpt>
      <trkpt lat="48.43513" lon="2.64158">
        <ele>110.52</ele>
        <time>2014-01-04T09:49:41Z</time>
      </trkpt>
      <trkpt lat="48.43529" lon="2.64209">
        <ele>110.6</ele>
        <time>2014-01-04T09:49:55Z</time>
      </trkpt>
      <trkpt lat="48.43549" lon="2.64262">
        <ele>109.82</ele>
        <time>2014-01-04T09:50:07Z</time>
      </trkpt>
      <trkpt lat="48.43581" lon="2.64296">
        <ele>106.6</ele>
        <time>2014-01-04T09:50:22Z</time>
      </trkpt>
      <trkpt lat="48.43598" lon="2.64331">
        <ele>104.07</ele>
        <time>2014-01-04T09:50:31Z</time>
      </trkpt>
      <trkpt lat="48.43615" lon="2.64374">
        <ele>102.37</ele>
        <time>2014-01-04T09:50:38Z</time>
      </trkpt>
      <trkpt lat="48.43626" lon="2.6441">
        <ele>100.18</ele>
        <time>2014-01-04T09:50:47Z</time>
      </trkpt>
      <trkpt lat="48.43626" lon="2.64415">
        <ele>100.05</ele>
        <time>2014-01-04T09:51:09Z</time>
      </trkpt>
      <trkpt lat="48.43593" lon="2.64472">
        <ele>99.86</ele>
        <time>2014-01-04T09:51:54Z</time>
      </trkpt>
      <trkpt lat="48.43555" lon="2.64571">
        <ele>100.03</ele>
        <time>2014-01-04T09:52:15Z</time>
      </trkpt>
      <trkpt lat="48.4353" lon="2.64588">
        <ele>100.09</ele>
        <time>2014-01-04T09:52:22Z</time>
      </trkpt>
      <trkpt lat="48.43486" lon="2.64619">
        <ele>99.41</ele>
        <time>2014-01-04T09:52:33Z</time>
      </trkpt>
      <trkpt lat="48.43453" lon="2.64637">
        <ele>99.89</ele>
        <time>2014-01-04T09:52:41Z</time>
      </trkpt>
      <trkpt lat="48.43379" lon="2.64673">
        <ele>99.98</ele>
        <time>2014-01-04T09:53:02Z</time>
      </trkpt>
      <trkpt lat="48.43376" lon="2.64635">
        <ele>100.08</ele>
        <time>2014-01-04T09:53:08Z</time>
      </trkpt>
      <trkpt lat="48.4337" lon="2.64418">
        <ele>99.75</ele>
        <time>2014-01-04T09:53:41Z</time>
      </trkpt>
      <trkpt lat="48.43305" lon="2.64485">
        <ele>100.31</ele>
        <time>2014-01-04T09:56:36Z</time>
      </trkpt>
      <trkpt lat="48.43243" lon="2.64542">
        <ele>101.64</ele>
        <time>2014-01-04T09:56:52Z</time>
      </trkpt>
      <trkpt lat="48.43235" lon="2.64592">
        <ele>102.62</ele>
        <time>2014-01-04T09:57:00Z</time>
      </trkpt>
      <trkpt lat="48.43202" lon="2.64695">
        <ele>103.04</ele>
        <time>2014-01-04T09:57:18Z</time>
      </trkpt>
      <trkpt lat="48.43191" lon="2.64725">
        <ele>104.66</ele>
        <time>2014-01-04T09:57:27Z</time>
      </trkpt>
      <trkpt lat="48.43189" lon="2.64731">
        <ele>105.18</ele>
        <time>2014-01-04T09:57:30Z</time>
      </trkpt>
      <trkpt lat="48.43145" lon="2.64791">
        <ele>103.24</ele>
        <time>2014-01-04T09:57:51Z</time>
      </trkpt>
      <trkpt lat="48.43127" lon="2.64803">
        <ele>103.57</ele>
        <time>2014-01-04T09:57:58Z</time>
      </trkpt>
      <trkpt lat="48.43111" lon="2.64821">
        <ele>103.17</ele>
        <time>2014-01-04T09:58:04Z</time>
      </trkpt>
      <trkpt lat="48.43103" lon="2.64829">
        <ele>103.41</ele>
        <time>2014-01-04T09:58:07Z</time>
      </trkpt>
      <trkpt lat="48.43096" lon="2.64866">
        <ele>104.03</ele>
        <time>2014-01-04T09:58:23Z</time>
      </trkpt>
      <trkpt lat="48.43093" lon="2.64868">
        <ele>112.15</ele>
        <time>2014-01-04T10:59:20Z</time>
      </trkpt>
      <trkpt lat="48.43053" lon="2.64904">
        <ele>113.65</ele>
        <time>2014-01-04T10:59:32Z</time>
      </trkpt>
      <trkpt lat="48.4305" lon="2.64909">
        <ele>113.74</ele>
        <time>2014-01-04T10:59:33Z</time>
      </trkpt>
      <trkpt lat="48.43022" lon="2.64941">
        <ele>114.21</ele>
        <time>2014-01-04T10:59:41Z</time>
      </trkpt>
      <trkpt lat="48.4302" lon="2.64943">
        <ele>114.27</ele>
        <time>2014-01-04T10:59:42Z</time>
      </trkpt>
      <trkpt lat="48.43013" lon="2.64993">
        <ele>115.61</ele>
        <time>2014-01-04T10:59:55Z</time>
      </trkpt>
      <trkpt lat="48.43009" lon="2.65005">
        <ele>117.5</ele>
        <time>2014-01-04T11:00:06Z</time>
      </trkpt>
      <trkpt lat="48.42994" lon="2.65041">
        <ele>118.91</ele>
        <time>2014-01-04T11:00:19Z</time>
      </trkpt>
      <trkpt lat="48.42957" lon="2.65057">
        <ele>121.5</ele>
        <time>2014-01-04T11:00:38Z</time>
      </trkpt>
      <trkpt lat="48.42921" lon="2.65092">
        <ele>125.14</ele>
        <time>2014-01-04T11:00:57Z</time>
      </trkpt>
      <trkpt lat="48.42916" lon="2.65107">
        <ele>125.96</ele>
        <time>2014-01-04T11:01:02Z</time>
      </trkpt>
      <trkpt lat="48.4291" lon="2.65162">
        <ele>128.03</ele>
        <time>2014-01-04T11:01:17Z</time>
      </trkpt>
      <trkpt lat="48.429" lon="2.6522">
        <ele>129.86</ele>
        <time>2014-01-04T11:01:36Z</time>
      </trkpt>
      <trkpt lat="48.42889" lon="2.65231">
        <ele>133.2</ele>
        <time>2014-01-04T11:01:46Z</time>
      </trkpt>
      <trkpt lat="48.42876" lon="2.65277">
        <ele>137.39</ele>
        <time>2014-01-04T11:02:20Z</time>
      </trkpt>
      <trkpt lat="48.4288" lon="2.65309">
        <ele>140.8</ele>
        <time>2014-01-04T11:02:56Z</time>
      </trkpt>
      <trkpt lat="48.4288" lon="2.65311">
        <ele>140.91</ele>
        <time>2014-01-04T11:02:57Z</time>
      </trkpt>
      <trkpt lat="48.42888" lon="2.65342">
        <ele>144.02</ele>
        <time>2014-01-04T11:03:20Z</time>
      </trkpt>
      <trkpt lat="48.42892" lon="2.65358">
        <ele>144.94</ele>
        <time>2014-01-04T11:03:31Z</time>
      </trkpt>
      <trkpt lat="48.42891" lon="2.65406">
        <ele>147.83</ele>
        <time>2014-01-04T11:03:49Z</time>
      </trkpt>
      <trkpt lat="48.42893" lon="2.65425">
        <ele>149.14</ele>
        <time>2014-01-04T11:03:56Z</time>
      </trkpt>
      <trkpt lat="48.42872" lon="2.65473">
        <ele>152.02</ele>
        <time>2014-01-04T11:04:15Z</time>
      </trkpt>
      <trkpt lat="48.4284" lon="2.65506">
        <ele>155.54</ele>
        <time>2014-01-04T11:04:51Z</time>
      </trkpt>
      <trkpt lat="48.4284" lon="2.6551">
        <ele>154.91</ele>
        <time>2014-01-04T11:06:50Z</time>
      </trkpt>
      <trkpt lat="48.42856" lon="2.65559">
        <ele>154.35</ele>
        <time>2014-01-04T11:07:03Z</time>
      </trkpt>
      <trkpt lat="48.42891" lon="2.65647">
        <ele>156.01</ele>
        <time>2014-01-04T11:07:26Z</time>
      </trkpt>
      <trkpt lat="48.42905" lon="2.65682">
        <ele>155.85</ele>
        <time>2014-01-04T11:07:43Z</time>
      </trkpt>
      <trkpt lat="48.42903" lon="2.65736">
        <ele>156.44</ele>
        <time>2014-01-04T11:08:00Z</time>
      </trkpt>
      <trkpt lat="48.42887" lon="2.65798">
        <ele>156.49</ele>
        <time>2014-01-04T11:08:17Z</time>
      </trkpt>
      <trkpt lat="48.42887" lon="2.65804">
        <ele>156.05</ele>
        <time>2014-01-04T11:08:19Z</time>
      </trkpt>
      <trkpt lat="48.42872" lon="2.65856">
        <ele>156.29</ele>
        <time>2014-01-04T11:08:33Z</time>
      </trkpt>
      <trkpt lat="48.42851" lon="2.65885">
        <ele>157.89</ele>
        <time>2014-01-04T11:08:45Z</time>
      </trkpt>
      <trkpt lat="48.42846" lon="2.65898">
        <ele>156.73</ele>
        <time>2014-01-04T11:08:49Z</time>
      </trkpt>
      <trkpt lat="48.42802" lon="2.65939">
        <ele>155.42</ele>
        <time>2014-01-04T11:09:06Z</time>
      </trkpt>
      <trkpt lat="48.42794" lon="2.65947">
        <ele>155.57</ele>
        <time>2014-01-04T11:09:12Z</time>
      </trkpt>
      <trkpt lat="48.42768" lon="2.65919">
        <ele>157.2</ele>
        <time>2014-01-04T11:09:24Z</time>
      </trkpt>
      <trkpt lat="48.42645" lon="2.65786">
        <ele>157.59</ele>
        <time>2014-01-04T11:09:59Z</time>
      </trkpt>
      <trkpt lat="48.42509" lon="2.65642">
        <ele>155.15</ele>
        <time>2014-01-04T11:10:31Z</time>
      </trkpt>
      <trkpt lat="48.42421" lon="2.6554">
        <ele>156.07</ele>
        <time>2014-01-04T11:10:54Z</time>
      </trkpt>
      <trkpt lat="48.42394" lon="2.65514">
        <ele>156.39</ele>
        <time>2014-01-04T11:11:01Z</time>
      </trkpt>
      <trkpt lat="48.42289" lon="2.65398">
        <ele>155.3</ele>
        <time>2014-01-04T11:11:28Z</time>
      </trkpt>
      <trkpt lat="48.42193" lon="2.65296">
        <ele>155.56</ele>
        <time>2014-01-04T11:11:50Z</time>
      </trkpt>
      <trkpt lat="48.42054" lon="2.65145">
        <ele>153.24</ele>
        <time>2014-01-04T11:12:20Z</time>
      </trkpt>
      <trkpt lat="48.41962" lon="2.65044">
        <ele>154.55</ele>
        <time>2014-01-04T11:12:43Z</time>
      </trkpt>
      <trkpt lat="48.41885" lon="2.6497">
        <ele>154.48</ele>
        <time>2014-01-04T11:13:00Z</time>
      </trkpt>
      <trkpt lat="48.4172" lon="2.64792">
        <ele>154.67</ele>
        <time>2014-01-04T11:13:40Z</time>
      </trkpt>
      <trkpt lat="48.41581" lon="2.64641">
        <ele>154.63</ele>
        <time>2014-01-04T11:14:14Z</time>
      </trkpt>
      <trkpt lat="48.41426" lon="2.64476">
        <ele>153.37</ele>
        <time>2014-01-04T11:14:48Z</time>
      </trkpt>
      <trkpt lat="48.41365" lon="2.64406">
        <ele>151.64</ele>
        <time>2014-01-04T11:15:06Z</time>
      </trkpt>
      <trkpt lat="48.41327" lon="2.64376">
        <ele>151.7</ele>
        <time>2014-01-04T11:15:18Z</time>
      </trkpt>
      <trkpt lat="48.41297" lon="2.64343">
        <ele>151.73</ele>
        <time>2014-01-04T11:15:25Z</time>
      </trkpt>
      <trkpt lat="48.41125" lon="2.64157">
        <ele>152.59</ele>
        <time>2014-01-04T11:16:02Z</time>
      </trkpt>
      <trkpt lat="48.40992" lon="2.64019">
        <ele>152.63</ele>
        <time>2014-01-04T11:16:33Z</time>
      </trkpt>
      <trkpt lat="48.40953" lon="2.63976">
        <ele>153.88</ele>
        <time>2014-01-04T11:16:43Z</time>
      </trkpt>
      <trkpt lat="48.40913" lon="2.63933">
        <ele>155.04</ele>
        <time>2014-01-04T11:16:55Z</time>
      </trkpt>
      <trkpt lat="48.40877" lon="2.63855">
        <ele>154.86</ele>
        <time>2014-01-04T11:17:12Z</time>
      </trkpt>
    </trkseg>
  </trk>
</gpx>